createdAt,value
2023-02-15T00:02:13.340Z,7.50
2023-02-15T00:04:59.748Z,12.85
2023-02-15T00:07:45.560Z,16.85
2023-02-15T00:10:31.799Z,13.15
2023-02-15T00:13:17.681Z,9.00
2023-02-15T00:16:05.111Z,10.88
2023-02-15T00:18:53.184Z,13.95
2023-02-15T00:21:40.126Z,10.23
2023-02-15T00:27:13.273Z,10.35
2023-02-15T00:29:59.284Z,11.48
2023-02-15T00:32:47.983Z,11.77
2023-02-15T00:35:34.311Z,13.35
2023-02-15T00:38:20.230Z,7.85
2023-02-15T00:41:08.165Z,11.73
2023-02-15T00:43:54.238Z,9.82
2023-02-15T00:46:40.155Z,13.48
2023-02-15T00:49:28.590Z,10.77
2023-02-15T00:52:14.752Z,9.63
2023-02-15T00:55:00.677Z,8.55
2023-02-15T00:57:46.440Z,10.85
2023-02-15T01:00:32.368Z,12.27
2023-02-15T01:03:21.474Z,14.25
2023-02-15T01:06:07.571Z,7.05
2023-02-15T01:08:53.600Z,8.30
2023-02-15T01:11:39.441Z,5.90
2023-02-15T01:14:25.510Z,8.77
2023-02-15T01:17:11.449Z,9.93
2023-02-15T01:19:57.409Z,6.05
2023-02-15T01:22:43.293Z,9.00
2023-02-15T01:25:29.410Z,7.60
2023-02-15T01:28:15.452Z,7.60
2023-02-15T01:31:07.060Z,9.27
2023-02-15T01:33:53.139Z,12.10
2023-02-15T01:36:39.072Z,7.43
2023-02-15T01:39:25.223Z,8.35
2023-02-15T01:42:12.505Z,8.43
2023-02-15T01:45:18.795Z,6.50
2023-02-15T01:48:10.868Z,5.78
2023-02-15T01:51:02.692Z,6.75
2023-02-15T01:53:54.917Z,6.25
2023-02-15T01:56:42.033Z,7.35
2023-02-15T01:59:28.536Z,5.57
2023-02-15T02:02:17.534Z,5.18
2023-02-15T02:05:07.629Z,17.23
2023-02-15T02:07:56.932Z,11.68
2023-02-15T02:10:42.627Z,8.43
2023-02-15T02:13:29.103Z,9.48
2023-02-15T02:16:21.373Z,6.40
2023-02-15T02:19:44.080Z,13.25
2023-02-15T02:22:33.155Z,7.53
2023-02-15T02:25:45.808Z,9.13
2023-02-15T02:28:47.092Z,6.30
2023-02-15T02:31:55.255Z,9.95
2023-02-15T02:34:46.466Z,9.40
2023-02-15T02:37:52.850Z,8.50
2023-02-15T02:41:01.603Z,5.93
2023-02-15T02:44:05.386Z,7.00
2023-02-15T02:47:00.168Z,6.22
2023-02-15T02:49:47.956Z,6.35
2023-02-15T02:52:44.234Z,14.85
2023-02-15T02:55:56.515Z,10.15
2023-02-15T02:58:50.285Z,12.68
2023-02-15T03:01:39.947Z,7.22
2023-02-15T03:04:33.689Z,8.90
2023-02-15T03:07:26.893Z,6.75
2023-02-15T03:10:15.439Z,7.53
2023-02-15T03:13:03.270Z,15.43
2023-02-15T03:16:10.844Z,11.40
2023-02-15T03:19:07.276Z,8.93
2023-02-15T03:21:58.959Z,9.25
2023-02-15T03:25:07.763Z,8.32
2023-02-15T03:27:59.844Z,15.85
2023-02-15T03:30:49.649Z,8.38
2023-02-15T03:33:41.845Z,17.13
2023-02-15T03:36:38.239Z,7.97
2023-02-15T03:39:54.173Z,9.07
2023-02-15T03:42:41.600Z,12.43
2023-02-15T03:45:31.881Z,7.07
2023-02-15T03:48:19.150Z,10.27
2023-02-15T03:51:27.840Z,10.45
2023-02-15T03:54:43.199Z,8.88
2023-02-15T03:57:48.732Z,8.43
2023-02-15T04:00:56.814Z,9.10
2023-02-15T04:03:58.335Z,8.32
2023-02-15T04:06:45.031Z,11.07
2023-02-15T04:09:49.679Z,11.23
2023-02-15T04:12:35.610Z,18.90
2023-02-15T04:15:40.104Z,13.90
2023-02-15T04:18:44.634Z,10.00
2023-02-15T04:21:50.378Z,9.75
2023-02-15T04:24:54.685Z,14.88
2023-02-15T04:27:49.176Z,13.45
2023-02-15T04:30:35.396Z,6.57
2023-02-15T04:33:21.472Z,7.53
2023-02-15T04:36:07.512Z,5.43
2023-02-15T04:38:53.441Z,8.18
2023-02-15T04:41:39.460Z,6.50
2023-02-15T04:44:25.362Z,13.82
2023-02-15T04:47:11.368Z,10.60
2023-02-15T04:49:58.248Z,8.82
2023-02-15T04:52:44.433Z,8.40
2023-02-15T04:55:30.738Z,7.07
2023-02-15T04:58:16.949Z,7.75
2023-02-15T05:01:03.134Z,8.52
2023-02-15T05:03:49.069Z,13.43
2023-02-15T05:06:35.224Z,14.93
2023-02-15T05:09:21.296Z,9.77
2023-02-15T05:12:07.662Z,9.70
2023-02-15T05:14:53.730Z,9.25
2023-02-15T05:17:39.977Z,14.25
2023-02-15T05:20:26.396Z,7.85
2023-02-15T05:23:12.600Z,14.52
2023-02-15T05:26:17.533Z,10.25
2023-02-15T05:29:04.490Z,8.27
2023-02-15T05:31:50.777Z,11.70
2023-02-15T05:34:37.033Z,15.27
2023-02-15T05:37:23.305Z,6.45
2023-02-15T05:40:10.032Z,8.73
2023-02-15T05:42:57.405Z,8.48
2023-02-15T05:45:50.006Z,9.77
2023-02-15T05:48:36.526Z,9.75
2023-02-15T05:51:22.853Z,10.93
2023-02-15T05:54:08.885Z,11.43
2023-02-15T05:56:54.850Z,9.68
2023-02-15T05:59:40.772Z,10.13
2023-02-15T06:02:26.835Z,6.00
2023-02-15T06:05:13.076Z,10.00
2023-02-15T06:07:58.992Z,8.48
2023-02-15T06:10:47.687Z,12.48
2023-02-15T06:13:38.228Z,9.65
2023-02-15T06:16:25.304Z,10.90
2023-02-15T06:19:11.937Z,8.10
2023-02-15T06:21:58.195Z,7.47
2023-02-15T06:24:44.120Z,10.80
2023-02-15T06:27:30.076Z,10.57
2023-02-15T06:30:16.539Z,9.38
2023-02-15T06:33:02.938Z,7.60
2023-02-15T06:35:49.190Z,8.60
2023-02-15T06:38:35.503Z,9.38
2023-02-15T06:41:21.712Z,10.50
2023-02-15T06:44:08.067Z,11.40
2023-02-15T06:46:54.425Z,10.32
2023-02-15T06:49:40.595Z,8.27
2023-02-15T06:52:27.172Z,11.57
2023-02-15T06:55:13.600Z,9.15
2023-02-15T06:57:59.521Z,8.18
2023-02-15T07:00:45.516Z,11.55
2023-02-15T07:03:32.158Z,18.08
2023-02-15T07:06:18.370Z,11.48
2023-02-15T07:09:05.388Z,10.02
2023-02-15T07:14:56.544Z,14.05
2023-02-15T07:17:42.904Z,9.48
2023-02-15T07:20:30.009Z,9.68
2023-02-15T07:23:16.250Z,14.05
2023-02-15T07:26:03.157Z,18.25
2023-02-15T07:28:50.059Z,13.65
2023-02-15T07:31:36.489Z,11.60
2023-02-15T07:34:22.666Z,8.65
2023-02-15T07:37:08.920Z,9.25
2023-02-15T07:39:55.177Z,10.55
2023-02-15T07:42:41.480Z,10.80
2023-02-15T07:45:28.032Z,11.55
2023-02-15T07:48:14.240Z,13.05
2023-02-15T07:51:06.210Z,11.05
2023-02-15T07:53:52.785Z,10.32
2023-02-15T07:56:39.472Z,12.07
2023-02-15T07:59:25.793Z,12.20
2023-02-15T08:02:12.330Z,14.50
2023-02-15T08:04:58.904Z,13.30
2023-02-15T08:07:44.930Z,11.15
2023-02-15T08:10:50.458Z,17.27
2023-02-15T08:13:36.393Z,11.18
2023-02-15T08:16:46.972Z,14.73
2023-02-15T08:19:34.139Z,11.65
2023-02-15T08:22:20.184Z,16.23
2023-02-15T08:25:07.083Z,9.68
2023-02-15T08:27:53.504Z,10.95
2023-02-15T08:30:39.385Z,14.35
2023-02-15T08:33:25.564Z,14.63
2023-02-15T08:36:17.285Z,11.20
2023-02-15T08:39:06.542Z,10.52
2023-02-15T08:41:52.559Z,15.70
2023-02-15T08:44:38.688Z,11.20
2023-02-15T08:47:24.944Z,16.50
2023-02-15T08:50:10.840Z,13.30
2023-02-15T08:52:57.223Z,16.20
2023-02-15T08:55:43.491Z,13.75
2023-02-15T08:58:31.732Z,10.60
2023-02-15T09:01:21.402Z,13.20
2023-02-15T09:04:12.109Z,16.58
2023-02-15T09:06:58.291Z,13.55
2023-02-15T09:09:44.201Z,16.63
2023-02-15T09:12:30.347Z,15.75
2023-02-15T09:15:16.451Z,13.48
2023-02-15T09:18:06.838Z,12.10
2023-02-15T09:20:52.878Z,15.32
2023-02-15T09:23:38.980Z,13.90
2023-02-15T09:26:25.616Z,14.60
2023-02-15T09:29:12.922Z,14.00
2023-02-15T09:31:59.198Z,10.80
2023-02-15T09:34:45.684Z,18.15
2023-02-15T09:37:32.825Z,14.98
2023-02-15T09:43:32.228Z,18.52
2023-02-15T09:46:30.586Z,12.85
2023-02-15T09:49:24.367Z,16.45
2023-02-15T09:52:32.174Z,14.38
2023-02-15T09:55:54.817Z,15.75
2023-02-15T09:59:12.717Z,14.20
2023-02-15T10:02:28.314Z,16.00
2023-02-15T10:05:40.252Z,18.00
2023-02-15T10:08:38.787Z,14.30
2023-02-15T10:11:55.642Z,13.77
2023-02-15T10:15:00.628Z,12.98
2023-02-15T10:18:00.721Z,17.15
2023-02-15T10:21:03.773Z,13.52
2023-02-15T10:23:52.956Z,14.93
2023-02-15T10:26:47.542Z,13.40
2023-02-15T10:29:38.617Z,14.80
2023-02-15T10:32:25.921Z,19.08
2023-02-15T10:35:45.311Z,14.05
2023-02-15T10:38:49.858Z,17.25
2023-02-15T10:41:37.829Z,19.02
2023-02-15T10:44:59.929Z,14.75
2023-02-15T10:48:12.066Z,13.15
2023-02-15T10:51:01.622Z,13.57
2023-02-15T10:54:00.893Z,13.30
2023-02-15T10:56:55.484Z,14.68
2023-02-15T11:00:06.147Z,16.50
2023-02-15T11:03:10.034Z,16.25
2023-02-15T11:06:13.174Z,14.80
2023-02-15T11:09:10.743Z,13.18
2023-02-15T11:12:00.690Z,16.15
2023-02-15T11:14:55.667Z,16.45
2023-02-15T11:17:51.626Z,15.70
2023-02-15T11:20:49.756Z,14.20
2023-02-15T11:23:41.433Z,16.17
2023-02-15T11:26:34.142Z,13.30
2023-02-15T11:29:28.919Z,17.00
2023-02-15T11:32:34.988Z,13.48
2023-02-15T11:35:27.555Z,13.15
2023-02-15T11:38:15.817Z,15.23
2023-02-15T11:41:10.165Z,13.18
2023-02-15T11:44:16.767Z,13.98
2023-02-15T11:47:03.691Z,13.75
2023-02-15T11:49:50.133Z,17.65
2023-02-15T11:52:38.359Z,14.15
2023-02-15T11:55:26.289Z,14.32
2023-02-15T11:58:35.156Z,11.88
2023-02-15T12:01:28.388Z,12.20
2023-02-15T12:04:41.155Z,13.90
2023-02-15T12:07:38.977Z,13.23
2023-02-15T12:10:53.893Z,11.93
2023-02-15T12:13:58.647Z,13.02
2023-02-15T12:16:54.380Z,14.88
2023-02-15T12:19:41.693Z,12.85
2023-02-15T12:22:31.313Z,12.60
2023-02-15T12:25:37.775Z,12.70
2023-02-15T12:28:36.905Z,13.20
2023-02-15T12:31:37.333Z,13.70
2023-02-15T12:34:28.472Z,12.18
2023-02-15T12:37:24.981Z,14.48
2023-02-15T12:40:31.474Z,13.05
2023-02-15T12:43:47.203Z,14.63
2023-02-15T12:49:24.147Z,14.50
2023-02-15T12:52:20.343Z,14.38
2023-02-15T12:55:22.514Z,15.60
2023-02-15T12:58:14.971Z,12.43
2023-02-15T13:01:10.505Z,16.00
2023-02-15T13:04:04.487Z,14.55
2023-02-15T13:06:53.453Z,15.75
2023-02-15T13:09:41.239Z,16.00
2023-02-15T13:12:33.046Z,14.27
2023-02-15T13:18:31.413Z,12.98
2023-02-15T13:21:27.540Z,12.75
2023-02-15T13:24:25.154Z,12.18
2023-02-15T13:27:21.529Z,14.18
2023-02-15T13:30:36.173Z,14.40
2023-02-15T13:33:31.966Z,11.48
2023-02-15T13:36:51.551Z,13.25
2023-02-15T13:39:43.109Z,14.65
2023-02-15T13:42:47.613Z,14.80
2023-02-15T13:46:11.907Z,14.07
2023-02-15T13:49:30.868Z,12.30
2023-02-15T13:52:28.970Z,12.93
2023-02-15T13:55:43.855Z,9.70
2023-02-15T13:58:29.706Z,13.75
2023-02-15T14:01:28.659Z,12.23
2023-02-15T14:04:24.097Z,13.98
2023-02-15T14:07:50.646Z,12.88
2023-02-15T14:11:10.607Z,14.27
2023-02-15T14:14:24.235Z,12.20
2023-02-15T14:17:32.692Z,12.48
2023-02-15T14:20:30.958Z,10.70
2023-02-15T14:23:37.087Z,12.77
2023-02-15T14:26:43.850Z,16.75
2023-02-15T14:29:50.087Z,11.40
2023-02-15T14:32:44.145Z,12.35
2023-02-15T14:35:32.256Z,12.65
2023-02-15T14:38:34.035Z,12.35
2023-02-15T14:41:33.206Z,13.52
2023-02-15T14:44:29.200Z,12.10
2023-02-15T14:47:34.043Z,14.05
2023-02-15T14:50:47.434Z,14.48
2023-02-15T14:53:33.778Z,11.98
2023-02-15T14:56:22.853Z,11.52
2023-02-15T14:59:21.649Z,11.95
2023-02-15T15:02:07.568Z,14.70
2023-02-15T15:05:07.571Z,13.50
2023-02-15T15:07:56.873Z,13.48
2023-02-15T15:10:45.893Z,12.60
2023-02-15T15:13:31.658Z,15.25
2023-02-15T15:16:53.734Z,13.75
2023-02-15T15:19:51.507Z,13.77
2023-02-15T15:25:36.790Z,14.02
2023-02-15T15:28:49.345Z,16.55
2023-02-15T15:31:47.871Z,14.32
2023-02-15T15:35:15.316Z,13.65
2023-02-15T15:38:26.802Z,17.27
2023-02-15T15:41:38.208Z,14.73
2023-02-15T15:44:46.445Z,14.57
2023-02-15T15:48:07.127Z,15.25
2023-02-15T15:50:57.649Z,14.02
2023-02-15T15:53:49.470Z,14.93
2023-02-15T15:56:39.440Z,14.50
2023-02-15T15:59:28.770Z,17.00
2023-02-15T16:02:17.956Z,15.27
2023-02-15T16:05:10.568Z,16.50
2023-02-15T16:07:56.700Z,21.52
2023-02-15T16:10:42.995Z,19.00
2023-02-15T16:13:29.152Z,19.67
2023-02-15T16:16:26.032Z,24.88
2023-02-15T16:19:23.375Z,21.98
2023-02-15T16:22:16.833Z,25.08
2023-02-15T16:25:41.721Z,25.85
2023-02-15T16:28:29.017Z,22.23
2023-02-15T16:31:17.056Z,22.33
2023-02-15T16:34:16.874Z,28.42
2023-02-15T16:37:15.513Z,22.48
2023-02-15T16:40:01.928Z,23.90
2023-02-15T16:42:48.295Z,25.27
2023-02-15T16:45:38.112Z,25.25
2023-02-15T16:48:26.779Z,24.15
2023-02-15T16:51:26.450Z,23.00
2023-02-15T16:54:21.924Z,24.52
2023-02-15T16:57:18.875Z,24.35
2023-02-15T17:00:09.047Z,24.88
2023-02-15T17:03:20.502Z,28.85
2023-02-15T17:06:21.582Z,18.95
2023-02-15T17:09:19.381Z,22.50
2023-02-15T17:12:05.895Z,28.85
2023-02-15T17:14:56.263Z,20.33
2023-02-15T17:17:42.932Z,28.60
2023-02-15T17:23:27.026Z,24.25
2023-02-15T17:26:25.760Z,23.38
2023-02-15T17:29:39.729Z,22.48
2023-02-15T17:32:31.399Z,27.90
2023-02-15T17:35:21.268Z,33.50
2023-02-15T17:38:20.815Z,33.97
2023-02-15T17:41:07.209Z,26.67
2023-02-15T17:43:53.286Z,25.70
2023-02-15T17:46:39.475Z,25.13
2023-02-15T17:49:34.800Z,41.80
2023-02-15T17:52:20.443Z,32.65
2023-02-15T17:55:33.894Z,28.33
2023-02-15T17:58:21.026Z,23.92
2023-02-15T18:01:37.556Z,39.72
2023-02-15T18:04:43.461Z,26.55
2023-02-15T18:07:48.036Z,37.88
2023-02-15T18:10:52.668Z,32.95
2023-02-15T18:13:38.438Z,33.03
2023-02-15T18:16:26.856Z,29.75
2023-02-15T18:19:17.637Z,30.58
2023-02-15T18:22:13.047Z,25.70
2023-02-15T18:24:59.949Z,25.35
2023-02-15T18:27:46.098Z,26.38
2023-02-15T18:30:33.354Z,26.00
2023-02-15T18:33:42.113Z,25.50
2023-02-15T18:36:32.691Z,22.55
2023-02-15T18:39:43.829Z,24.63
2023-02-15T18:42:34.272Z,17.98
2023-02-15T18:45:24.838Z,21.42
2023-02-15T18:48:10.851Z,22.50
2023-02-15T18:50:57.037Z,24.30
2023-02-15T18:53:43.200Z,20.02
2023-02-15T18:56:30.912Z,16.42
2023-02-15T18:59:17.381Z,17.23
2023-02-15T19:02:03.899Z,16.83
2023-02-15T19:04:50.377Z,23.77
2023-02-15T19:07:37.415Z,18.60
2023-02-15T19:10:26.114Z,28.70
2023-02-15T19:13:13.771Z,21.35
2023-02-15T19:16:00.310Z,16.80
2023-02-15T19:18:46.628Z,14.40
2023-02-15T19:21:32.855Z,18.35
2023-02-15T19:24:33.582Z,21.17
2023-02-15T19:27:25.508Z,18.77
2023-02-15T19:30:27.862Z,23.70
2023-02-15T19:33:18.020Z,12.20
2023-02-15T19:36:07.043Z,20.65
2023-02-15T19:38:54.791Z,20.90
2023-02-15T19:41:42.679Z,16.75
2023-02-15T19:44:28.547Z,23.85
2023-02-15T19:47:15.047Z,16.77
2023-02-15T19:50:03.580Z,16.00
2023-02-15T19:52:51.069Z,16.40
2023-02-15T19:55:37.994Z,22.98
2023-02-15T20:01:10.704Z,18.67
2023-02-15T20:03:57.087Z,23.95
2023-02-15T20:06:43.671Z,23.92
2023-02-15T20:09:37.861Z,19.20
2023-02-15T20:12:26.153Z,14.88
2023-02-15T20:15:24.267Z,26.95
2023-02-15T20:18:10.850Z,19.33
2023-02-15T20:20:57.641Z,23.60
2023-02-15T20:23:43.921Z,16.70
2023-02-15T20:26:31.302Z,19.98
2023-02-15T20:29:19.055Z,24.73
2023-02-15T20:32:05.286Z,18.13
2023-02-15T20:34:52.106Z,17.38
2023-02-15T20:37:38.061Z,15.55
2023-02-15T20:40:30.174Z,14.80
2023-02-15T20:43:16.448Z,17.38
2023-02-15T20:46:03.220Z,21.35
2023-02-15T20:48:49.786Z,17.67
2023-02-15T20:51:36.072Z,14.30
2023-02-15T20:54:32.675Z,11.73
2023-02-15T20:57:18.729Z,11.80
2023-02-15T21:00:05.571Z,20.42
2023-02-15T21:02:57.930Z,17.92
2023-02-15T21:05:45.492Z,15.98
2023-02-15T21:08:31.883Z,15.40
2023-02-15T21:11:21.033Z,23.98
2023-02-15T21:14:10.270Z,22.52
2023-02-15T21:16:56.593Z,12.77
2023-02-15T21:19:43.035Z,19.13
2023-02-15T21:22:28.992Z,22.08
2023-02-15T21:25:18.705Z,24.42
2023-02-15T21:28:08.403Z,23.80
2023-02-15T21:30:57.793Z,14.30
2023-02-15T21:33:44.792Z,23.42
2023-02-15T21:36:30.804Z,21.30
2023-02-15T21:39:25.955Z,21.67
2023-02-15T21:42:30.329Z,18.25
2023-02-15T21:45:36.231Z,20.35
2023-02-15T21:48:22.408Z,18.20
2023-02-15T21:51:26.828Z,19.05
2023-02-15T21:54:21.601Z,18.17
2023-02-15T21:57:14.136Z,19.02
2023-02-15T22:00:00.326Z,18.92
2023-02-15T22:02:48.557Z,25.20
2023-02-15T22:05:34.882Z,29.88
2023-02-15T22:08:21.236Z,35.28
2023-02-15T22:11:19.645Z,19.70
2023-02-15T22:14:05.579Z,15.95
2023-02-15T22:16:51.634Z,23.67
2023-02-15T22:19:37.776Z,17.58
2023-02-15T22:22:24.349Z,15.10
2023-02-15T22:25:13.404Z,17.35
2023-02-15T22:27:59.380Z,18.98
2023-02-15T22:30:48.136Z,17.42
2023-02-15T22:33:34.778Z,19.05
2023-02-15T22:36:29.586Z,16.73
2023-02-15T22:39:15.696Z,10.95
2023-02-15T22:42:01.699Z,21.25
2023-02-15T22:44:48.551Z,24.35
2023-02-15T22:50:24.516Z,16.20
2023-02-15T22:53:10.400Z,18.52
2023-02-15T22:55:58.931Z,25.08
2023-02-15T22:58:48.376Z,26.85
2023-02-15T23:01:36.605Z,21.88
2023-02-15T23:04:28.226Z,23.02
2023-02-15T23:07:16.528Z,20.42
2023-02-15T23:10:02.876Z,17.92
2023-02-15T23:13:22.461Z,15.48
2023-02-15T23:16:16.114Z,24.20
2023-02-15T23:19:02.121Z,22.15
2023-02-15T23:21:48.550Z,19.45
2023-02-15T23:24:34.569Z,21.25
2023-02-15T23:27:39.191Z,22.20
2023-02-15T23:30:25.298Z,13.95
2023-02-15T23:33:12.661Z,19.45
2023-02-15T23:35:58.723Z,24.10
2023-02-15T23:38:44.582Z,14.60
2023-02-15T23:41:30.624Z,18.35
2023-02-15T23:44:18.738Z,15.65
2023-02-15T23:47:06.562Z,12.15
2023-02-15T23:49:52.664Z,23.63
2023-02-15T23:52:38.923Z,18.58
2023-02-15T23:55:35.284Z,17.52
2023-02-15T23:58:26.496Z,13.05
